Time;durP1;ratioP1;P1;durP2;ratioP2;P2;SDS_P1;SDS_P2;PMS_P1;PMS_P2;Temp;Humidity;BMP_temperature;BMP_pressure;BME280_temperature;BME280_humidity;BME280_pressure;Samples;Min_cycle;Max_cycle;Signal;HPM_P1;HPM_P2
2023/10/14 00:04:27;;;;;;;15.48;6.12;;;;;;;19.25;100.00;99472.92;4989566;57;1140899;-73
2023/10/14 00:09:34;;;;;;;12.63;5.78;;;;;;;19.24;100.00;99468.11;4991812;58;1141047;-73
2023/10/14 00:14:44;;;;;;;11.55;4.15;;;;;;;19.26;100.00;99462.00;5010827;58;1141044;-73
2023/10/14 00:19:49;;;;;;;7.28;4.62;;;;;;;19.31;100.00;99450.69;5010515;56;1141093;-73
2023/10/14 00:24:54;;;;;;;10.45;5.25;;;;;;;19.36;100.00;99444.22;5015125;57;1139445;-72
2023/10/14 00:30:12;;;;;;;16.42;4.30;;;;;;;19.43;100.00;99441.02;5035055;57;1140893;-72
2023/10/14 00:35:19;;;;;;;14.80;5.12;;;;;;;19.47;100.00;99424.02;5014348;57;1141123;-73
2023/10/14 00:40:25;;;;;;;13.08;4.78;;;;;;;19.47;100.00;99425.36;5015131;56;1141396;-73
2023/10/14 00:45:31;;;;;;;18.18;3.86;;;;;;;19.44;100.00;99410.50;5034881;56;1140917;-73
2023/10/14 00:50:37;;;;;;;10.60;4.60;;;;;;;19.38;100.00;99396.58;5014936;56;1140820;-72
2023/10/14 00:55:54;;;;;;;14.53;4.62;;;;;;;19.44;100.00;99406.98;5015323;56;1140895;-73
2023/10/14 01:01:00;;;;;;;11.65;4.85;;;;;;;19.41;100.00;99384.09;5030988;56;1140943;-73
2023/10/14 01:06:56;;;;;;;13.38;5.03;;;;;;;19.38;100.00;99380.49;5015214;57;1141022;-73
2023/10/14 01:11:16;;;;;;;9.25;4.35;;;;;;;19.35;100.00;99366.15;4992153;57;1140840;-73
2023/10/14 01:16:24;;;;;;;8.35;3.77;;;;;;;19.33;100.00;99346.75;5034953;56;1138821;-73
2023/10/14 01:21:28;;;;;;;12.30;3.83;;;;;;;19.31;100.00;99334.06;5023003;56;1139353;-73
2023/10/14 01:26:34;;;;;;;21.97;5.00;;;;;;;19.27;100.00;99317.55;5024944;56;1140898;-72
2023/10/14 01:31:47;;;;;;;8.20;5.07;;;;;;;19.24;100.00;99303.76;5043965;55;1141104;-73
2023/10/14 01:36:53;;;;;;;16.15;4.42;;;;;;;19.21;100.00;99302.30;5020621;56;1139006;-73
2023/10/14 01:41:59;;;;;;;10.95;4.55;;;;;;;19.19;100.00;99292.30;5024606;56;1141039;-73
2023/10/14 01:47:04;;;;;;;12.65;3.90;;;;;;;19.20;100.00;99278.38;5024968;56;1140802;-73
2023/10/14 01:52:15;;;;;;;16.27;4.53;;;;;;;19.18;100.00;99273.22;5044666;56;1140923;-73
2023/10/14 01:57:17;;;;;;;13.58;4.30;;;;;;;19.17;100.00;99273.42;5024233;56;1141020;-73
2023/10/14 02:02:25;;;;;;;16.15;4.00;;;;;;;19.13;100.00;99262.80;5023572;56;1140958;-73
2023/10/14 02:07:30;;;;;;;8.98;3.72;;;;;;;19.09;100.00;99262.91;5044476;56;1141054;-72
2023/10/14 02:12:36;;;;;;;8.48;3.72;;;;;;;19.11;100.00;99250.93;5024652;56;1139038;-72
2023/10/14 02:17:41;;;;;;;8.83;4.03;;;;;;;19.13;100.00;99277.02;5088834;56;1138914;-73
2023/10/14 02:22:49;;;;;;;16.02;4.03;;;;;;;19.16;100.00;99259.70;5128571;56;1139137;-73
2023/10/14 02:27:57;;;;;;;6.28;3.62;;;;;;;19.18;100.00;99265.18;5107233;56;1140845;-73
2023/10/14 02:33:03;;;;;;;9.70;3.22;;;;;;;19.21;100.00;99245.19;5107983;56;1138874;-74
2023/10/14 02:38:09;;;;;;;12.73;4.65;;;;;;;19.29;100.00;99252.50;5107994;55;1138950;-72
2023/10/14 02:43:16;;;;;;;6.10;2.80;;;;;;;19.45;100.00;99264.66;5128199;56;1140747;-72
2023/10/14 02:48:22;;;;;;;12.73;3.65;;;;;;;19.50;100.00;99266.77;5108427;56;1138737;-72
2023/10/14 02:53:30;;;;;;;12.68;3.72;;;;;;;19.50;100.00;99266.25;5102672;56;1141118;-74
2023/10/14 02:58:35;;;;;;;8.58;3.50;;;;;;;19.52;100.00;99261.52;5045113;56;1141024;-73
2023/10/14 03:03:43;;;;;;;7.78;2.92;;;;;;;19.46;100.00;99275.70;5025776;57;1139093;-73
2023/10/14 03:08:57;;;;;;;10.28;3.67;;;;;;;19.41;100.00;99256.72;5065991;56;1138806;-73
2023/10/14 03:13:56;;;;;;;6.58;3.70;;;;;;;19.43;100.00;99261.87;5126828;56;1141056;-72
2023/10/14 03:19:03;;;;;;;19.15;3.47;;;;;;;19.40;100.00;99239.52;5025263;57;1138715;-72
2023/10/14 03:24:10;;;;;;;18.93;3.10;;;;;;;19.33;100.00;99230.13;5056547;56;1140837;-73
2023/10/14 03:29:16;;;;;;;11.53;3.62;;;;;;;19.29;100.00;99226.20;5044395;56;1140879;-72
2023/10/14 03:34:29;;;;;;;16.07;4.47;;;;;;;19.24;100.00;99228.19;5025187;56;1141028;-73
2023/10/14 03:39:46;;;;;;;8.50;3.67;;;;;;;19.18;100.00;99217.45;5031774;56;1237415;-74
2023/10/14 03:44:47;;;;;;;13.22;3.98;;;;;;;19.09;100.00;99203.44;5060815;56;1138750;-73
2023/10/14 03:49:56;;;;;;;9.03;4.28;;;;;;;19.04;100.00;99195.70;5059757;56;1140980;-72
2023/10/14 03:55:00;;;;;;;10.80;3.70;;;;;;;18.97;100.00;99201.86;5108952;56;1138476;-73
2023/10/14 04:00:12;;;;;;;9.25;2.95;;;;;;;18.93;100.00;99190.44;5108616;56;1140800;-73
2023/10/14 04:05:19;;;;;;;9.95;4.12;;;;;;;18.89;100.00;99187.34;5083951;56;1138947;-72
2023/10/14 04:10:23;;;;;;;7.75;3.12;;;;;;;18.88;100.00;99174.14;5035368;56;1139167;-72
2023/10/14 04:20:34;;;;;;;7.90;3.25;;;;;;;18.96;100.00;99151.16;5044197;57;1140935;-72
2023/10/14 04:25:42;;;;;;;13.65;3.70;;;;;;;19.01;100.00;99140.66;5029152;57;1139037;-72
2023/10/14 04:30:47;;;;;;;20.63;4.00;;;;;;;19.06;100.00;99150.77;5026263;57;1141134;-73
2023/10/14 04:41:23;;;;;;;6.97;3.33;;;;;;;19.04;100.00;99134.89;4986324;56;1140994;-72
2023/10/14 04:46:32;;;;;;;9.58;3.64;;;;;;;18.95;100.00;99142.30;5033931;56;1138574;-72
2023/10/14 04:51:45;;;;;;;10.30;4.37;;;;;;;18.90;100.00;99130.56;5053832;56;1138963;-73
2023/10/14 04:56:41;;;;;;;7.53;3.40;;;;;;;18.80;100.00;99116.22;5032670;55;1140928;-72
2023/10/14 05:01:48;;;;;;;12.07;3.80;;;;;;;18.75;100.00;99111.20;5076292;56;1138561;-73
2023/10/14 05:06:53;;;;;;;8.55;3.62;;;;;;;18.71;100.00;99130.03;5148113;56;1140788;-73
2023/10/14 05:12:00;;;;;;;8.58;3.02;;;;;;;18.68;100.00;99130.44;5124698;56;1138460;-75
2023/10/14 05:22:26;;;;;;;7.20;3.60;;;;;;;18.56;100.00;99114.95;5042800;56;1140998;-73
2023/10/14 05:27:45;;;;;;;24.15;4.70;;;;;;;18.53;100.00;99111.34;5055388;56;1138961;-73
2023/10/14 05:32:36;;;;;;;7.70;4.00;;;;;;;18.54;100.00;99100.12;5040668;56;1140607;-74
2023/10/14 05:37:45;;;;;;;8.85;3.25;;;;;;;18.54;100.00;99103.63;5020943;56;1139024;-73
2023/10/14 05:42:51;;;;;;;10.95;3.65;;;;;;;18.53;100.00;99097.12;5034988;56;1139137;-73
2023/10/14 05:47:57;;;;;;;10.30;3.50;;;;;;;18.56;100.00;99101.56;5014947;56;1141047;-74
2023/10/14 05:53:07;;;;;;;12.18;3.75;;;;;;;18.64;100.00;99099.77;5015594;55;1140845;-73
2023/10/14 05:58:10;;;;;;;8.30;3.40;;;;;;;18.67;100.00;99096.14;5084428;55;1141001;-73
2023/10/14 06:03:17;;;;;;;13.62;3.42;;;;;;;18.71;100.00;99096.05;5148856;54;1138905;-74
2023/10/14 06:08:24;;;;;;;20.25;3.95;;;;;;;18.73;100.00;99098.52;5127861;56;1141018;-73
2023/10/14 06:13:29;;;;;;;8.43;3.50;;;;;;;18.75;100.00;99097.80;5127177;55;1140938;-74
2023/10/14 06:18:36;;;;;;;9.88;3.60;;;;;;;18.79;100.00;99104.41;5080476;55;1138732;-75
2023/10/14 06:23:49;;;;;;;6.73;2.83;;;;;;;18.91;100.00;99081.31;5084356;56;1139115;-74
2023/10/14 06:28:57;;;;;;;6.50;3.25;;;;;;;18.98;100.00;99089.64;5087310;56;1138811;-74
2023/10/14 06:34:08;;;;;;;8.23;3.90;;;;;;;19.03;100.00;99101.08;5085329;56;1138853;-75
2023/10/14 06:39:14;;;;;;;9.15;3.50;;;;;;;19.05;100.00;99105.72;5078999;56;1138933;-74
2023/10/14 06:44:26;;;;;;;17.27;4.12;;;;;;;19.09;100.00;99109.64;5074339;56;1138676;-74
2023/10/14 06:49:41;;;;;;;10.08;4.00;;;;;;;19.05;100.00;99119.12;5096968;56;1141192;-74
2023/10/14 06:54:36;;;;;;;10.32;3.52;;;;;;;19.06;100.00;99124.79;5131211;56;1140909;-74
2023/10/14 06:59:42;;;;;;;8.57;3.80;;;;;;;19.05;100.00;99127.67;5056677;56;1143194;-74
2023/10/14 07:04:50;;;;;;;16.60;3.80;;;;;;;19.04;100.00;99109.43;5113471;56;1138797;-74
2023/10/14 07:09:55;;;;;;;12.00;3.90;;;;;;;19.03;100.00;99101.59;5110942;56;1140878;-74
2023/10/14 07:15:01;;;;;;;5.83;3.60;;;;;;;19.10;100.00;99108.58;5101390;56;1140712;-74
2023/10/14 07:20:10;;;;;;;8.33;3.52;;;;;;;19.29;100.00;99110.92;5119629;56;1138842;-73
2023/10/14 07:25:16;;;;;;;12.15;3.17;;;;;;;19.54;100.00;99105.24;5119430;56;1138885;-74
2023/10/14 07:30:26;;;;;;;12.55;3.62;;;;;;;19.79;100.00;99112.57;5123276;56;1140935;-74
2023/10/14 07:35:31;;;;;;;19.80;4.72;;;;;;;19.93;100.00;99101.56;5058673;56;1140748;-74
2023/10/14 07:40:38;;;;;;;17.02;3.67;;;;;;;20.14;100.00;99103.64;5096442;56;1140791;-77
2023/10/14 07:45:47;;;;;;;5.78;3.20;;;;;;;20.30;100.00;99118.73;5055297;57;1140880;-74
2023/10/14 07:50:56;;;;;;;6.60;3.47;;;;;;;20.25;100.00;99119.88;5084850;55;1139172;-75
2023/10/14 07:56:00;;;;;;;10.38;2.67;;;;;;;20.19;100.00;99125.27;5065136;56;1138785;-74
2023/10/14 08:01:06;;;;;;;12.82;3.67;;;;;;;20.09;100.00;99132.45;5085178;56;1140778;-74
2023/10/14 08:06:13;;;;;;;10.25;4.25;;;;;;;20.26;100.00;99131.45;5138993;56;1140897;-72
2023/10/14 08:11:21;;;;;;;6.15;3.42;;;;;;;20.48;100.00;99136.80;5034113;56;1140877;-74
2023/10/14 08:16:27;;;;;;;9.73;3.80;;;;;;;20.59;100.00;99148.73;5073840;56;1138647;-74
2023/10/14 08:21:36;;;;;;;9.70;3.60;;;;;;;20.75;100.00;99168.36;5108432;56;1138893;-74
2023/10/14 08:26:40;;;;;;;9.48;4.53;;;;;;;20.89;100.00;99165.88;5087953;56;1139252;-74
2023/10/14 08:31:51;;;;;;;10.97;3.77;;;;;;;20.90;100.00;99174.25;5079027;56;1139077;-74
2023/10/14 08:36:56;;;;;;;14.60;3.73;;;;;;;20.69;100.00;99188.85;5049658;57;1140920;-73
2023/10/14 08:42:04;;;;;;;8.38;3.92;;;;;;;20.46;100.00;99224.85;5022436;57;1141019;-74
2023/10/14 08:47:13;;;;;;;11.20;4.08;;;;;;;20.17;100.00;99231.53;5031052;56;1138681;-73
2023/10/14 08:52:18;;;;;;;5.55;3.45;;;;;;;20.01;100.00;99247.58;5035014;56;1141042;-73
2023/10/14 08:57:24;;;;;;;10.30;3.50;;;;;;;19.94;100.00;99245.45;5105944;56;1138871;-74
2023/10/14 09:02:29;;;;;;;9.75;2.45;;;;;;;19.96;100.00;99260.83;5118699;56;1140659;-74
2023/10/14 09:07:44;;;;;;;2.98;1.88;;;;;;;19.86;100.00;99278.41;5120012;56;1143046;-77
2023/10/14 09:13:04;;;;;;;3.17;1.55;;;;;;;19.55;100.00;99291.13;5085673;56;1138964;-75
2023/10/14 09:18:32;;;;;;;1.47;0.95;;;;;;;19.05;100.00;99318.77;5040378;56;1138776;-74
2023/10/14 09:23:40;;;;;;;1.35;0.68;;;;;;;18.35;100.00;99336.47;5046302;56;1139221;-75
2023/10/14 09:28:48;;;;;;;2.77;0.88;;;;;;;17.82;100.00;99357.03;5055264;57;1138925;-74
2023/10/14 09:33:54;;;;;;;0.50;0.50;;;;;;;17.40;100.00;99371.23;5050461;56;1138989;-74
2023/10/14 09:39:06;;;;;;;1.50;0.63;;;;;;;17.23;100.00;99397.88;5113276;56;1138934;-74
2023/10/14 09:44:10;;;;;;;1.38;1.06;;;;;;;17.17;100.00;99412.81;5094720;56;1138553;-69
2023/10/14 09:49:18;;;;;;;0.30;0.30;;;;;;;17.08;100.00;99420.63;5079687;56;1138680;-69
2023/10/14 09:54:25;;;;;;;2.10;0.70;;;;;;;16.97;100.00;99422.42;5076292;56;1138829;-74
2023/10/14 09:59:33;;;;;;;0.30;0.30;;;;;;;16.97;100.00;99433.11;5083479;56;1138775;-75
2023/10/14 10:04:44;;;;;;;1.87;0.70;;;;;;;16.96;100.00;99438.67;5054675;56;1140537;-74
2023/10/14 10:10:16;;;;;;;2.85;1.25;;;;;;;16.81;100.00;99466.19;5080863;56;1139143;-74
2023/10/14 10:15:23;;;;;;;0.50;0.50;;;;;;;16.56;100.00;99483.97;5116599;56;1138665;-74
2023/10/14 10:20:41;;;;;;;3.97;2.50;;;;;;;16.38;100.00;99484.30;5066659;56;1138842;-74
2023/10/14 10:25:49;;;;;;;2.85;2.10;;;;;;;16.38;100.00;99459.78;5112318;56;1138620;-74
2023/10/14 10:31:09;;;;;;;5.10;2.30;;;;;;;16.23;100.00;99494.95;5062744;56;1138737;-75
2023/10/14 10:36:13;;;;;;;2.30;1.40;;;;;;;16.07;100.00;99516.42;5060696;56;1138743;-75
2023/10/14 10:41:31;;;;;;;2.02;1.42;;;;;;;16.04;100.00;99520.80;5102554;56;1138896;-74
2023/10/14 10:46:50;;;;;;;1.77;1.00;;;;;;;15.94;100.00;99521.53;5068000;56;1146635;-75
2023/10/14 10:52:12;;;;;;;5.60;0.80;;;;;;;15.85;100.00;99528.77;5051283;56;1138842;-73
2023/10/14 10:57:20;;;;;;;1.73;0.80;;;;;;;15.78;100.00;99542.46;5097214;56;1138773;-74
2023/10/14 11:02:25;;;;;;;1.70;1.00;;;;;;;15.72;100.00;99555.17;5113226;56;1139047;-74
2023/10/14 11:07:32;;;;;;;1.60;1.50;;;;;;;15.77;100.00;99567.45;5095094;56;1138508;-73
2023/10/14 11:12:38;;;;;;;1.47;1.10;;;;;;;15.94;100.00;99562.86;5062316;56;1148645;-74
2023/10/14 11:17:43;;;;;;;0.93;0.70;;;;;;;15.94;100.00;99562.86;5115257;56;1138781;-73
2023/10/14 11:22:49;;;;;;;1.50;0.68;;;;;;;15.96;100.00;99578.19;5135236;56;1138958;-74
2023/10/14 11:27:55;;;;;;;1.35;0.75;;;;;;;16.01;100.00;99579.83;5089077;56;1138938;-73
2023/10/14 11:33:02;;;;;;;4.20;1.10;;;;;;;16.06;100.00;99596.95;5041708;56;1138995;-74
2023/10/14 11:38:14;;;;;;;5.63;1.30;;;;;;;15.99;100.00;99586.67;5094291;56;1148663;-73
2023/10/14 11:43:21;;;;;;;1.92;0.70;;;;;;;16.01;100.00;99606.00;5135995;56;1139041;-76
2023/10/14 11:48:38;;;;;;;3.83;1.23;;;;;;;16.01;100.00;99617.17;5056079;56;1138942;-72
2023/10/14 11:53:43;;;;;;;;;;;;;;;15.97;100.00;99623.85;5084047;56;1139031;-74
2023/10/14 11:58:49;;;;;;;6.40;0.93;;;;;;;15.83;100.00;99620.92;5094839;55;976131;-73
2023/10/14 12:03:54;;;;;;;3.17;0.80;;;;;;;15.75;100.00;99642.78;5094639;56;1136765;-73
2023/10/14 12:09:05;;;;;;;4.23;1.00;;;;;;;15.69;100.00;99634.99;5119373;56;1138916;-73
2023/10/14 12:14:11;;;;;;;4.90;1.43;;;;;;;15.86;100.00;99651.75;5119354;56;1139105;-74
2023/10/14 12:19:18;;;;;;;5.73;1.30;;;;;;;16.05;100.00;99658.47;5139441;56;1138735;-73
2023/10/14 12:24:25;;;;;;;4.40;1.70;;;;;;;16.32;100.00;99672.67;5119156;56;1138607;-73
2023/10/14 12:29:33;;;;;;;3.73;1.17;;;;;;;16.39;100.00;99684.28;5109610;56;1138686;-73
2023/10/14 12:34:39;;;;;;;10.77;1.77;;;;;;;16.52;100.00;99689.03;5056086;56;1138702;-73
2023/10/14 12:39:55;;;;;;;8.33;1.63;;;;;;;16.85;100.00;99690.98;5033678;57;1141237;-73
2023/10/14 12:44:57;;;;;;;4.80;1.90;;;;;;;16.92;92.20;99708.48;5046523;56;1138937;-73
2023/10/14 12:50:02;;;;;;;5.17;1.70;;;;;;;16.76;94.31;99701.42;5054710;57;1136932;-73
2023/10/14 12:55:22;;;;;;;7.30;2.00;;;;;;;16.98;96.90;99695.22;5039822;56;1137055;-73
2023/10/14 13:00:29;;;;;;;2.33;0.70;;;;;;;17.28;89.93;99700.12;5082372;56;1136710;-73
2023/10/14 13:05:28;;;;;;;8.63;2.47;;;;;;;17.31;77.45;99696.25;5110364;56;1136655;-73
2023/10/14 13:10:36;;;;;;;7.27;1.33;;;;;;;17.51;79.28;99698.73;5063083;56;1136753;-73
2023/10/14 13:15:41;;;;;;;2.00;1.00;;;;;;;17.60;73.47;99702.95;5090931;56;1136776;-74
2023/10/14 13:20:47;;;;;;;5.28;2.30;;;;;;;17.78;76.06;99706.13;5139188;56;1136716;-74
2023/10/14 13:25:56;;;;;;;6.72;1.82;;;;;;;18.02;75.30;99704.19;5070704;56;1136692;-73
2023/10/14 13:31:00;;;;;;;4.97;1.70;;;;;;;18.20;74.72;99707.27;5052322;56;1136881;-75
2023/10/14 13:36:09;;;;;;;3.83;1.32;;;;;;;18.11;70.54;99716.44;5040039;56;1136882;-73
2023/10/14 13:41:14;;;;;;;9.85;1.98;;;;;;;18.05;74.55;99726.54;5106871;55;1136607;-75
2023/10/14 13:46:20;;;;;;;4.97;1.77;;;;;;;18.19;75.40;99723.84;5053032;56;1136892;-75
2023/10/14 13:51:28;;;;;;;6.70;2.65;;;;;;;18.25;74.62;99723.61;5107337;56;1137026;-75
2023/10/14 13:56:33;;;;;;;5.85;3.05;;;;;;;18.30;74.86;99733.77;5139354;56;1136674;-73
2023/10/14 14:01:39;;;;;;;5.90;2.13;;;;;;;18.18;73.81;99740.91;5119112;56;1136603;-75
2023/10/14 14:06:45;;;;;;;6.50;1.87;;;;;;;18.11;75.18;99743.20;5119027;56;1137095;-75
2023/10/14 14:11:55;;;;;;;11.08;2.25;;;;;;;17.72;75.76;99738.95;5139406;56;1136586;-75
2023/10/14 14:31:56;;;;;;;14.10;2.40;;;;;;;17.09;79.15;99743.41;5049456;56;46932;-73
2023/10/14 14:37:03;;;;;;;12.60;2.20;;;;;;;16.57;82.92;99757.92;4866864;57;1134642;-73
2023/10/14 14:42:10;;;;;;;7.17;1.83;;;;;;;16.41;82.55;99769.02;4886460;57;1138806;-74
2023/10/14 14:47:16;;;;;;;2.83;1.50;;;;;;;16.22;82.43;99769.43;4951310;58;1136612;-73
2023/10/14 14:52:23;;;;;;;6.00;2.33;;;;;;;16.20;82.11;99774.10;4892695;58;1136706;-74
2023/10/14 14:57:28;;;;;;;4.90;1.30;;;;;;;16.22;80.63;99777.44;4884259;57;1136973;-73
2023/10/14 15:02:36;;;;;;;7.60;2.50;;;;;;;16.13;79.66;99775.81;4995482;56;1136892;-73
2023/10/14 15:07:43;;;;;;;7.05;1.50;;;;;;;17.12;78.26;99785.27;4935386;56;1136630;-73
2023/10/14 15:12:52;;;;;;;14.73;2.00;;;;;;;17.39;73.33;99792.42;4902659;57;1136851;-74
2023/10/14 15:17:58;;;;;;;6.22;1.77;;;;;;;16.85;75.55;99792.48;5126309;55;1138723;-74
2023/10/14 15:23:03;;;;;;;10.27;1.87;;;;;;;16.51;76.64;99792.30;5027411;56;1136595;-74
2023/10/14 15:28:11;;;;;;;7.60;1.73;;;;;;;16.10;78.79;99801.00;5106724;56;1138805;-73
2023/10/14 15:33:17;;;;;;;5.15;1.42;;;;;;;15.76;79.84;99818.58;5044735;56;1136969;-73
2023/10/14 15:38:22;;;;;;;5.93;1.20;;;;;;;15.51;81.50;99816.09;5107482;55;1136960;-74
2023/10/14 15:43:28;;;;;;;4.45;1.82;;;;;;;15.30;82.86;99821.41;5035198;56;1136819;-73
2023/10/14 15:48:34;;;;;;;8.80;3.10;;;;;;;15.14;84.06;99818.23;4969244;57;1136818;-73
2023/10/14 15:53:39;;;;;;;13.95;2.42;;;;;;;15.00;85.10;99832.70;5017890;57;1136853;-73
2023/10/14 15:58:45;;;;;;;5.97;1.72;;;;;;;14.90;86.11;99848.84;5053124;56;1138913;-73
2023/10/14 16:03:52;;;;;;;7.23;2.07;;;;;;;14.81;87.07;99856.98;4986834;57;1136952;-74
2023/10/14 16:08:57;;;;;;;4.95;1.92;;;;;;;14.74;86.66;99850.13;4957888;57;1136726;-74
2023/10/14 16:14:04;;;;;;;10.50;3.12;;;;;;;14.72;86.49;99837.47;5015264;57;1136658;-73
2023/10/14 16:19:09;;;;;;;12.27;4.23;;;;;;;14.69;85.42;99836.46;5048354;56;1138721;-74
2023/10/14 16:24:15;;;;;;;6.03;2.12;;;;;;;14.62;84.89;99854.09;4936663;57;1138994;-74
2023/10/14 16:29:20;;;;;;;5.20;2.20;;;;;;;14.53;84.83;99877.65;4949077;57;1136770;-73
2023/10/14 16:34:27;;;;;;;8.10;2.73;;;;;;;14.45;84.89;99882.45;4971064;57;1136921;-74
2023/10/14 16:39:33;;;;;;;7.47;2.53;;;;;;;14.39;85.68;99885.70;4962876;57;1136788;-75
2023/10/14 16:44:38;;;;;;;7.27;2.37;;;;;;;14.23;88.41;99924.19;5011527;56;1136682;-75
2023/10/14 16:49:44;;;;;;;6.43;2.80;;;;;;;13.97;89.91;99923.69;4952897;57;1136876;-74
2023/10/14 16:54:50;;;;;;;5.23;3.20;;;;;;;13.74;90.09;99925.19;5017592;56;1136537;-73
2023/10/14 16:59:56;;;;;;;33.90;15.03;;;;;;;13.52;90.58;99940.25;5011945;56;1137101;-74
2023/10/14 17:05:04;;;;;;;80.20;39.57;;;;;;;13.38;91.48;99949.59;5166633;55;1141219;-73
2023/10/14 17:10:14;;;;;;;6.27;3.43;;;;;;;13.16;92.11;99957.48;5143052;55;1141176;-74
2023/10/14 17:15:27;;;;;;;9.50;4.80;;;;;;;13.03;93.06;99976.39;5106236;55;1136957;-74
2023/10/14 17:20:39;;;;;;;7.47;3.00;;;;;;;12.95;93.13;99984.76;5162638;55;1136729;-72
2023/10/14 17:25:43;;;;;;;10.43;3.65;;;;;;;12.82;95.16;99993.06;5106476;55;1136743;-73
2023/10/14 17:30:50;;;;;;;11.83;2.90;;;;;;;12.76;95.17;99986.16;5065916;56;1138620;-74
2023/10/14 17:35:56;;;;;;;7.47;2.20;;;;;;;12.71;95.83;99994.55;5030644;56;1138943;-74
2023/10/14 17:41:04;;;;;;;5.67;1.87;;;;;;;12.63;96.09;99986.00;5068502;56;1137115;-74
2023/10/14 17:46:15;;;;;;;5.20;1.53;;;;;;;12.58;96.34;99994.88;4967590;57;1137314;-73
2023/10/14 17:51:20;;;;;;;4.90;1.90;;;;;;;12.50;95.77;99992.61;4960236;57;1136869;-74
2023/10/14 17:56:26;;;;;;;6.77;2.27;;;;;;;12.42;95.93;99995.13;4985733;57;1136875;-74
2023/10/14 18:01:31;;;;;;;3.53;1.73;;;;;;;12.42;95.32;100016.34;5118535;56;1137071;-74
2023/10/14 18:06:38;;;;;;;5.90;1.77;;;;;;;12.33;93.96;100018.89;5022171;56;1138754;-74
2023/10/14 18:11:50;;;;;;;5.53;2.65;;;;;;;12.30;93.23;100024.48;5037158;56;1254310;-73
2023/10/14 18:16:51;;;;;;;2.23;1.30;;;;;;;12.31;92.99;100025.31;5059007;56;1139246;-73
2023/10/14 18:21:56;;;;;;;6.77;4.00;;;;;;;12.30;91.27;100033.75;4989152;57;1139089;-73
2023/10/14 18:27:02;;;;;;;16.40;5.97;;;;;;;12.33;90.72;100038.78;5060495;56;1138871;-74
2023/10/14 18:32:08;;;;;;;7.07;2.07;;;;;;;12.38;91.01;100034.84;4973516;57;1141016;-74
2023/10/14 18:37:14;;;;;;;6.90;3.10;;;;;;;12.32;90.53;100043.73;5052422;56;1139115;-74
2023/10/14 18:42:19;;;;;;;8.47;4.90;;;;;;;12.28;90.70;100050.29;5007083;57;1139111;-73
2023/10/14 18:47:26;;;;;;;3.77;1.83;;;;;;;12.29;90.54;100053.78;4983582;57;1139002;-74
2023/10/14 18:52:32;;;;;;;4.90;1.97;;;;;;;12.28;89.19;100055.59;5033393;56;1139144;-73
2023/10/14 18:57:38;;;;;;;3.83;1.67;;;;;;;12.22;88.01;100054.02;5172138;55;1139171;-74
2023/10/14 19:02:44;;;;;;;5.50;1.40;;;;;;;12.17;87.02;100049.61;5127692;55;1138766;-74
2023/10/14 19:07:50;;;;;;;11.68;3.30;;;;;;;12.12;87.48;100050.02;5140381;55;1138818;-73
2023/10/14 19:12:55;;;;;;;8.23;1.90;;;;;;;12.06;87.70;100047.11;5176459;55;1141186;-73
2023/10/14 19:18:11;;;;;;;6.80;2.00;;;;;;;11.98;88.25;100044.66;4996578;57;1138812;-74
2023/10/14 19:23:23;;;;;;;8.10;3.43;;;;;;;11.90;89.11;100055.13;5087934;55;1139002;-73
2023/10/14 19:28:28;;;;;;;11.03;3.23;;;;;;;11.86;89.70;100052.41;4921569;57;1138830;-74
2023/10/14 19:33:35;;;;;;;5.97;1.57;;;;;;;11.79;90.24;100051.75;4905635;57;1141597;-74
2023/10/14 19:38:41;;;;;;;10.13;3.97;;;;;;;11.66;91.55;100062.59;5014103;57;1139031;-74
2023/10/14 19:43:48;;;;;;;6.62;1.90;;;;;;;11.57;92.28;100080.63;4995413;56;1140975;-73
2023/10/14 19:48:58;;;;;;;6.57;1.73;;;;;;;11.48;93.61;100083.59;5105637;56;1139203;-74
2023/10/14 19:54:01;;;;;;;8.00;3.47;;;;;;;11.37;94.61;100082.38;5073813;56;1139321;-74
2023/10/14 19:59:07;;;;;;;13.33;6.60;;;;;;;11.27;95.93;100075.74;5005628;57;1139388;-73
2023/10/14 20:04:12;;;;;;;4.00;2.00;;;;;;;11.16;96.51;100074.49;4993129;57;1141224;-73
2023/10/14 20:09:19;;;;;;;4.70;1.83;;;;;;;11.09;97.84;100075.17;5174963;55;1138874;-73
2023/10/14 20:14:24;;;;;;;7.33;2.27;;;;;;;10.98;99.23;100082.73;5043487;57;1138863;-74
2023/10/14 20:19:31;;;;;;;3.93;2.03;;;;;;;10.89;99.26;100071.11;5085713;56;1138778;-73
2023/10/14 20:24:36;;;;;;;4.33;1.52;;;;;;;10.84;99.89;100071.17;5001508;57;1138937;-73
2023/10/14 20:29:42;;;;;;;5.47;1.55;;;;;;;10.79;100.00;100065.42;5108675;55;1138825;-74
2023/10/14 20:34:47;;;;;;;4.35;1.72;;;;;;;10.74;100.00;100068.45;5033755;56;1141012;-73
2023/10/14 20:39:53;;;;;;;3.90;1.30;;;;;;;10.67;100.00;100061.20;5027204;56;1140999;-73
2023/10/14 20:44:58;;;;;;;6.12;1.60;;;;;;;10.61;100.00;100066.99;5010571;57;1140900;-73
2023/10/14 20:50:04;;;;;;;6.55;2.15;;;;;;;10.54;100.00;100059.56;4932726;57;1140918;-73
2023/10/14 20:55:10;;;;;;;6.92;1.65;;;;;;;10.47;100.00;100066.36;4876075;57;1141024;-73
2023/10/14 21:00:17;;;;;;;6.60;2.33;;;;;;;10.38;100.00;100072.43;4932332;57;1140891;-73
2023/10/14 21:05:25;;;;;;;10.90;2.27;;;;;;;10.36;100.00;100076.16;4969502;56;1141231;-73
2023/10/14 21:10:31;;;;;;;9.43;3.73;;;;;;;10.30;100.00;100085.44;5015245;56;1143214;-73
2023/10/14 21:15:42;;;;;;;4.23;1.70;;;;;;;10.24;100.00;100089.89;5000855;56;1256478;-74
2023/10/14 21:20:46;;;;;;;4.67;1.40;;;;;;;10.26;100.00;100099.86;5099063;56;1140985;-73
2023/10/14 21:25:57;;;;;;;5.53;2.67;;;;;;;10.23;100.00;100105.91;4986863;56;1140987;-73
2023/10/14 21:31:03;;;;;;;8.33;1.63;;;;;;;10.17;100.00;100106.73;5126271;56;1141046;-73
2023/10/14 21:36:17;;;;;;;3.90;1.67;;;;;;;10.15;100.00;100103.37;5114202;56;1141103;-73
2023/10/14 21:41:23;;;;;;;7.50;1.60;;;;;;;10.14;100.00;100100.36;5117944;56;1141085;-74
2023/10/14 21:46:29;;;;;;;4.87;1.50;;;;;;;10.14;100.00;100103.01;5032593;57;1140855;-73
2023/10/14 21:51:34;;;;;;;8.13;2.83;;;;;;;10.13;100.00;100105.30;5048253;57;1141021;-73
2023/10/14 21:56:40;;;;;;;5.15;1.92;;;;;;;10.18;100.00;100107.12;4998629;57;1141142;-72
2023/10/14 22:01:46;;;;;;;9.37;2.80;;;;;;;10.18;100.00;100097.87;5068792;56;1141023;-73
2023/10/14 22:06:53;;;;;;;5.17;2.67;;;;;;;10.15;100.00;100109.97;5127224;56;1141022;-73
2023/10/14 22:11:58;;;;;;;12.55;3.77;;;;;;;10.11;100.00;100105.89;4996050;56;1140834;-73
2023/10/14 22:17:04;;;;;;;2.77;1.50;;;;;;;10.07;100.00;100100.53;5049236;56;1142933;-73
2023/10/14 22:22:11;;;;;;;9.07;2.80;;;;;;;9.98;100.00;100098.63;5084720;56;1141012;-73
2023/10/14 22:27:17;;;;;;;6.97;1.90;;;;;;;9.88;100.00;100103.83;5114180;56;1138747;-73
2023/10/14 22:32:23;;;;;;;3.97;1.63;;;;;;;9.85;100.00;100104.55;5105407;55;1138866;-74
2023/10/14 22:37:29;;;;;;;9.67;3.40;;;;;;;9.78;100.00;100104.68;5101548;55;1138760;-73
2023/10/14 22:42:34;;;;;;;5.23;1.87;;;;;;;9.74;100.00;100113.83;5009215;57;1139022;-71
2023/10/14 22:47:41;;;;;;;3.37;1.90;;;;;;;9.74;100.00;100113.36;5072178;56;1139213;-71
2023/10/14 22:52:48;;;;;;;8.77;2.00;;;;;;;9.75;100.00;100119.00;4996135;56;1241211;-72
2023/10/14 22:57:56;;;;;;;9.67;2.37;;;;;;;9.78;100.00;100116.08;5017602;56;1138862;-73
2023/10/14 23:03:09;;;;;;;6.43;1.67;;;;;;;9.80;100.00;100103.59;4959913;57;1138824;-72
2023/10/14 23:08:10;;;;;;;8.30;3.77;;;;;;;9.82;100.00;100100.83;5090509;55;1138961;-72
2023/10/14 23:13:17;;;;;;;12.50;2.65;;;;;;;9.83;100.00;100099.88;5096301;55;1138861;-73
2023/10/14 23:18:23;;;;;;;5.77;2.27;;;;;;;9.78;100.00;100096.75;5133656;55;1140935;-72
2023/10/14 23:23:28;;;;;;;8.30;2.00;;;;;;;9.72;100.00;100094.63;5153142;55;1138807;-73
2023/10/14 23:28:34;;;;;;;3.53;1.63;;;;;;;9.62;100.00;100101.14;5126701;55;1138838;-71
2023/10/14 23:33:41;;;;;;;5.42;1.82;;;;;;;9.51;100.00;100097.18;5128489;56;1138932;-72
2023/10/14 23:38:47;;;;;;;5.12;1.80;;;;;;;9.41;100.00;100094.92;5145293;55;1138818;-72
2023/10/14 23:43:53;;;;;;;7.28;1.65;;;;;;;9.31;100.00;100085.59;5123695;55;1138769;-71
2023/10/14 23:48:59;;;;;;;9.47;1.83;;;;;;;9.25;100.00;100090.50;5138229;55;1138873;-71